Time;durP1;ratioP1;P1;durP2;ratioP2;P2;SDS_P1;SDS_P2;PMS_P1;PMS_P2;Temp;Humidity;BMP_temperature;BMP_pressure;BME280_temperature;BME280_humidity;BME280_pressure;Samples;Min_cycle;Max_cycle;Signal;HPM_P1;HPM_P2
2023/12/18 00:00:28;;;;;;;33.43;19.87;;;;;;;4.91;68.29;96445.69;5038866;28;20184;-47
2023/12/18 00:02:54;;;;;;;26.40;17.70;;;;;;;4.86;68.29;96440.78;5033192;28;20196;-46
2023/12/18 00:05:23;;;;;;;28.57;18.63;;;;;;;4.90;68.47;96459.25;5033837;28;20199;-44
2023/12/18 00:07:49;;;;;;;27.30;18.07;;;;;;;4.64;68.43;96417.19;5042568;28;20183;-45
2023/12/18 00:10:16;;;;;;;30.77;18.73;;;;;;;4.87;68.46;96460.19;5057803;28;20570;-45
2023/12/18 00:12:43;;;;;;;28.53;17.70;;;;;;;4.86;68.35;96453.47;5053782;28;20782;-45
2023/12/18 00:15:10;;;;;;;28.57;17.57;;;;;;;4.85;68.38;96445.94;5059660;28;20191;-46
2023/12/18 00:17:37;;;;;;;25.00;16.37;;;;;;;4.84;68.30;96434.97;5053055;28;20231;-46
2023/12/18 00:20:05;;;;;;;33.00;18.57;;;;;;;4.83;68.40;96433.31;5052008;28;20190;-45
2023/12/18 00:22:33;;;;;;;26.97;17.17;;;;;;;4.83;68.57;96428.22;5050692;28;20217;-46
2023/12/18 00:25:00;;;;;;;27.47;18.00;;;;;;;4.56;68.54;96381.16;5051802;28;20241;-47
2023/12/18 00:27:27;;;;;;;27.00;16.97;;;;;;;4.79;68.44;96414.03;5039579;28;20195;-44
2023/12/18 00:29:54;;;;;;;27.73;16.63;;;;;;;4.71;68.47;96406.75;5033229;28;20187;-46
2023/12/18 00:32:21;;;;;;;26.67;17.43;;;;;;;4.82;68.37;96431.66;5032942;28;20346;-45
2023/12/18 00:34:48;;;;;;;30.33;17.10;;;;;;;4.82;68.29;96415.63;5032500;28;20192;-47
2023/12/18 00:37:15;;;;;;;33.50;18.37;;;;;;;4.82;68.38;96418.16;5050046;28;20194;-45
2023/12/18 00:39:43;;;;;;;27.83;17.07;;;;;;;4.75;68.32;96408.28;5049259;28;20195;-50
2023/12/18 00:42:09;;;;;;;26.93;16.93;;;;;;;4.81;68.31;96411.44;5053602;28;20183;-45
2023/12/18 00:44:36;;;;;;;25.90;16.07;;;;;;;4.80;68.45;96404.75;5051886;28;20191;-46
2023/12/18 00:47:03;;;;;;;26.73;15.67;;;;;;;4.80;68.21;96412.34;5052303;28;20187;-47
2023/12/18 00:49:32;;;;;;;28.20;16.07;;;;;;;4.80;68.32;96419.94;5054965;28;20194;-51
2023/12/18 00:51:59;;;;;;;25.93;16.17;;;;;;;4.78;68.30;96417.47;5037489;28;20194;-44
2023/12/18 00:54:26;;;;;;;26.73;16.93;;;;;;;4.77;68.31;96409.03;5031781;28;20572;-46
2023/12/18 00:56:54;;;;;;;27.17;15.13;;;;;;;4.77;68.25;96414.09;5040748;28;20219;-47
2023/12/18 00:59:21;;;;;;;24.43;15.27;;;;;;;4.74;68.31;96406.59;5046139;28;20208;-46
2023/12/18 01:01:48;;;;;;;25.77;16.07;;;;;;;4.77;68.32;96408.22;5032521;28;20196;-47
2023/12/18 01:04:14;;;;;;;22.00;15.80;;;;;;;4.76;68.33;96396.44;5033239;28;20576;-45
2023/12/18 01:06:41;;;;;;;25.80;15.83;;;;;;;4.72;68.27;96383.06;5031461;28;20258;-45
2023/12/18 01:09:08;;;;;;;24.53;15.10;;;;;;;4.70;68.39;96378.91;5031611;28;20191;-45
2023/12/18 01:11:35;;;;;;;25.33;15.80;;;;;;;4.77;68.31;96388.75;5031600;28;20255;-43
2023/12/18 01:14:03;;;;;;;30.00;16.83;;;;;;;4.74;68.25;96388.88;5033301;28;20682;-45
2023/12/18 01:16:29;;;;;;;27.57;16.00;;;;;;;4.75;68.32;96385.47;5050005;28;20362;-44
2023/12/18 01:18:56;;;;;;;27.37;16.47;;;;;;;4.76;68.26;96383.75;5049817;28;20268;-47
2023/12/18 01:21:23;;;;;;;24.93;14.83;;;;;;;4.73;68.24;96371.19;5049554;28;20206;-47
2023/12/18 01:23:50;;;;;;;21.23;14.20;;;;;;;4.75;68.34;96382.94;5049865;28;20217;-46
2023/12/18 01:26:17;;;;;;;25.40;15.70;;;;;;;4.72;68.32;96380.50;5050120;28;20194;-44
2023/12/18 01:28:44;;;;;;;25.23;14.73;;;;;;;4.75;68.31;96372.81;5049833;28;20517;-45
2023/12/18 01:31:22;;;;;;;26.97;15.67;;;;;;;4.76;68.26;96376.16;5049978;28;20577;-44
2023/12/18 01:33:49;;;;;;;23.73;14.87;;;;;;;4.72;68.33;96362.78;5049869;28;20228;-46
2023/12/18 01:36:17;;;;;;;25.40;15.50;;;;;;;4.75;68.44;96369.44;5050081;28;20195;-47
2023/12/18 01:38:44;;;;;;;27.40;15.37;;;;;;;4.75;68.37;96364.38;5048509;28;20276;-46
2023/12/18 01:41:11;;;;;;;24.73;14.73;;;;;;;4.74;68.33;96355.91;5049811;28;20191;-47
2023/12/18 01:43:38;;;;;;;20.40;14.33;;;;;;;4.75;68.33;96355.06;5049810;28;20294;-44
2023/12/18 01:46:06;;;;;;;21.27;15.03;;;;;;;4.75;68.33;96349.16;5029983;28;20200;-45
2023/12/18 01:48:34;;;;;;;23.90;13.77;;;;;;;4.76;68.42;96350.81;5029889;28;20195;-44
2023/12/18 01:51:02;;;;;;;24.67;14.77;;;;;;;4.74;68.06;96338.19;5030004;28;20195;-44
2023/12/18 01:53:32;;;;;;;24.10;15.07;;;;;;;4.74;68.43;96333.13;5030243;28;20219;-45
2023/12/18 01:56:01;;;;;;;21.53;14.63;;;;;;;4.74;68.61;96340.72;5009601;28;20196;-46
2023/12/18 01:58:29;;;;;;;23.93;14.30;;;;;;;4.75;68.51;96339.03;5009847;28;20227;-47
2023/12/18 02:00:56;;;;;;;23.63;14.47;;;;;;;4.75;68.41;96350.00;5009587;28;20665;-45
2023/12/18 02:03:24;;;;;;;21.63;13.90;;;;;;;4.76;68.43;96348.28;5013698;28;20191;-46
2023/12/18 02:05:53;;;;;;;20.87;13.43;;;;;;;4.74;68.62;96350.03;5033735;28;20191;-48
2023/12/18 02:08:20;;;;;;;21.43;14.03;;;;;;;4.69;68.50;96336.72;5033355;28;20734;-46
2023/12/18 02:10:47;;;;;;;25.10;15.67;;;;;;;4.78;68.55;96354.91;5033553;28;20210;-45
2023/12/18 02:13:14;;;;;;;22.07;14.30;;;;;;;4.73;68.43;96344.13;5033164;28;20196;-48
2023/12/18 02:15:41;;;;;;;20.93;13.80;;;;;;;4.80;68.51;96347.28;5033319;28;20188;-45
2023/12/18 02:18:08;;;;;;;24.47;15.17;;;;;;;4.80;68.45;96346.44;5033022;28;20797;-45
2023/12/18 02:20:34;;;;;;;22.37;14.60;;;;;;;4.80;68.58;96347.28;5033214;28;20715;-47
2023/12/18 02:23:02;;;;;;;20.03;13.33;;;;;;;4.80;68.50;96346.44;5033039;28;20228;-44
2023/12/18 02:25:29;;;;;;;19.13;13.47;;;;;;;4.81;68.67;96348.09;5033482;28;20180;-46
2023/12/18 02:27:56;;;;;;;18.13;12.40;;;;;;;4.81;68.55;96343.84;5032767;28;20717;-47
2023/12/18 02:30:23;;;;;;;21.63;14.63;;;;;;;4.81;68.57;96338.78;5035364;28;20649;-46
2023/12/18 02:32:51;;;;;;;21.27;14.03;;;;;;;4.81;68.49;96336.25;5052693;28;20286;-45
2023/12/18 02:35:18;;;;;;;22.13;14.30;;;;;;;4.82;68.39;96332.00;5053200;28;20191;-47
2023/12/18 02:37:44;;;;;;;23.83;15.10;;;;;;;4.83;68.51;96336.16;5052556;28;20195;-45
2023/12/18 02:40:13;;;;;;;21.87;13.17;;;;;;;4.82;68.51;96332.00;5040758;28;20219;-47
2023/12/18 02:42:40;;;;;;;20.67;14.20;;;;;;;4.80;68.51;96334.59;5033123;28;20192;-48
2023/12/18 02:45:07;;;;;;;21.93;13.73;;;;;;;4.77;68.60;96330.47;5047537;28;20201;-46
2023/12/18 02:47:34;;;;;;;20.83;13.73;;;;;;;4.78;68.44;96331.28;5052760;28;20194;-45
2023/12/18 02:50:01;;;;;;;20.20;12.87;;;;;;;4.65;68.38;96313.22;5052504;28;20244;-47
2023/12/18 02:52:27;;;;;;;21.33;13.03;;;;;;;4.81;68.45;96337.94;5050368;28;20264;-46
2023/12/18 02:54:54;;;;;;;19.13;13.03;;;;;;;4.73;68.27;96328.94;5041347;28;20632;-46
2023/12/18 02:57:22;;;;;;;20.20;12.03;;;;;;;4.80;68.46;96341.38;5054163;28;20187;-49
2023/12/18 02:59:49;;;;;;;20.57;11.77;;;;;;;4.77;68.42;96345.66;5058993;28;20215;-45
2023/12/18 03:02:16;;;;;;;16.63;11.63;;;;;;;4.78;68.31;96341.41;5053991;28;20215;-48
2023/12/18 03:04:43;;;;;;;22.83;11.63;;;;;;;4.78;68.24;96344.78;5052301;28;20597;-46
2023/12/18 03:07:10;;;;;;;20.30;12.53;;;;;;;4.77;68.35;96334.72;5049730;28;20191;-46
2023/12/18 03:09:37;;;;;;;16.87;11.17;;;;;;;4.74;68.29;96338.19;5032192;28;20742;-48
2023/12/18 03:12:05;;;;;;;16.03;11.23;;;;;;;4.67;68.18;96326.66;5032379;28;20218;-46
2023/12/18 03:14:33;;;;;;;17.03;10.77;;;;;;;4.76;68.21;96333.88;5042976;28;20205;-45
2023/12/18 03:17:00;;;;;;;17.50;10.77;;;;;;;4.72;68.22;96332.38;5052332;28;20702;-45
2023/12/18 03:19:27;;;;;;;15.17;10.77;;;;;;;4.75;68.30;96342.38;5052252;28;20707;-44
2023/12/18 03:21:54;;;;;;;14.63;10.73;;;;;;;4.75;68.21;96344.09;5051535;28;20183;-46
2023/12/18 03:24:21;;;;;;;20.53;12.63;;;;;;;4.74;68.23;96344.97;5051871;28;20525;-44
2023/12/18 03:26:47;;;;;;;18.10;11.23;;;;;;;4.73;68.13;96344.13;5051862;28;20190;-45
2023/12/18 03:29:14;;;;;;;17.47;10.30;;;;;;;4.69;68.14;96335.00;5052185;28;20217;-45
2023/12/18 03:31:42;;;;;;;16.43;11.67;;;;;;;4.73;68.31;96338.25;5051467;28;20203;-46
2023/12/18 03:34:09;;;;;;;17.20;11.27;;;;;;;4.61;68.22;96310.88;5051617;28;20191;-44
2023/12/18 03:36:36;;;;;;;18.03;11.23;;;;;;;4.72;68.23;96326.47;5051061;28;20194;-46
2023/12/18 03:39:03;;;;;;;16.33;10.17;;;;;;;4.71;68.17;96313.00;5051661;28;20668;-45
2023/12/18 03:41:29;;;;;;;19.63;12.00;;;;;;;4.69;68.23;96307.13;5051444;28;20225;-45
2023/12/18 03:43:56;;;;;;;15.93;10.67;;;;;;;4.72;68.20;96314.63;5050998;28;20191;-46
2023/12/18 03:46:23;;;;;;;17.23;10.97;;;;;;;4.71;68.30;96315.53;5051594;28;20187;-46
2023/12/18 03:48:51;;;;;;;18.17;10.97;;;;;;;4.67;68.34;96319.06;5051809;28;20183;-44
2023/12/18 03:51:18;;;;;;;16.57;11.03;;;;;;;4.66;68.36;96303.91;5051236;28;20195;-45
2023/12/18 03:53:44;;;;;;;15.80;10.60;;;;;;;4.72;68.19;96313.81;5051446;28;20237;-45
2023/12/18 03:56:11;;;;;;;16.30;11.30;;;;;;;4.71;68.15;96317.22;5051490;28;20206;-46
2023/12/18 03:58:38;;;;;;;16.80;10.90;;;;;;;4.71;68.20;96314.69;5051327;28;20762;-46
2023/12/18 04:01:05;;;;;;;16.07;11.30;;;;;;;4.70;68.08;96321.44;5051307;28;20199;-45
2023/12/18 04:03:31;;;;;;;14.40;10.03;;;;;;;4.72;68.15;96321.41;5051258;28;20206;-47
2023/12/18 04:05:59;;;;;;;17.77;11.13;;;;;;;4.71;68.37;96322.31;5050929;28;20183;-46
2023/12/18 04:08:26;;;;;;;19.10;11.47;;;;;;;4.71;68.18;96322.31;5050800;28;20190;-46
2023/12/18 04:10:53;;;;;;;16.70;10.90;;;;;;;4.71;68.22;96322.31;5051363;28;20199;-46
2023/12/18 04:13:20;;;;;;;15.93;10.70;;;;;;;4.70;68.36;96321.44;5046375;28;20184;-45
2023/12/18 04:15:46;;;;;;;14.90;10.63;;;;;;;4.69;68.28;96326.59;5031205;28;20219;-45
2023/12/18 04:18:13;;;;;;;16.70;11.37;;;;;;;4.70;68.39;96329.06;5031259;28;20665;-47
2023/12/18 04:20:40;;;;;;;16.87;10.73;;;;;;;4.70;68.31;96329.06;5040085;28;20207;-45
2023/12/18 04:23:08;;;;;;;15.37;10.70;;;;;;;4.49;68.43;96295.28;5050859;28;20219;-45
2023/12/18 04:25:35;;;;;;;15.87;10.83;;;;;;;4.71;68.34;96328.19;5050210;28;20187;-45
2023/12/18 04:28:02;;;;;;;16.67;10.83;;;;;;;4.71;68.31;96327.38;5051569;28;20241;-45
2023/12/18 04:30:29;;;;;;;14.47;9.67;;;;;;;4.71;68.23;96330.72;5052280;28;20198;-46
2023/12/18 04:32:55;;;;;;;13.57;9.63;;;;;;;4.73;68.33;96325.59;5053291;28;20195;-45
2023/12/18 04:35:23;;;;;;;13.20;9.43;;;;;;;4.72;68.35;96324.75;5048988;28;20914;-47
2023/12/18 04:37:56;;;;;;;15.53;10.20;;;;;;;4.74;68.14;96325.50;5034643;28;20583;-47
2023/12/18 04:40:32;;;;;;;16.97;11.20;;;;;;;4.74;68.28;96324.69;5033191;28;20273;-46
2023/12/18 04:42:59;;;;;;;14.83;10.27;;;;;;;4.72;68.25;96323.94;5031825;28;20676;-44
2023/12/18 04:45:26;;;;;;;15.87;11.03;;;;;;;4.72;68.26;96332.38;5031876;28;20274;-46
2023/12/18 04:47:53;;;;;;;14.47;10.87;;;;;;;4.73;68.19;96331.47;5032873;28;20195;-47
2023/12/18 04:50:19;;;;;;;15.43;10.57;;;;;;;4.65;68.52;96320.81;5043021;28;20287;-47
2023/12/18 04:52:46;;;;;;;14.53;10.10;;;;;;;4.73;68.20;96330.66;5043893;28;20196;-48
2023/12/18 04:55:13;;;;;;;13.77;10.27;;;;;;;4.70;68.17;96329.06;5030566;28;20191;-45
2023/12/18 04:57:41;;;;;;;17.40;10.90;;;;;;;4.59;68.23;96305.88;5031423;28;20196;-45
2023/12/18 05:00:08;;;;;;;16.40;10.77;;;;;;;4.73;68.25;96328.13;5031467;28;20208;-47
2023/12/18 05:02:36;;;;;;;14.13;10.60;;;;;;;4.72;68.27;96332.38;5030719;28;20186;-45
2023/12/18 05:05:03;;;;;;;13.93;9.77;;;;;;;4.72;68.34;96332.38;5031136;28;20184;-45
2023/12/18 05:07:29;;;;;;;18.63;11.13;;;;;;;4.72;68.18;96326.47;5045914;28;20695;-46
2023/12/18 05:09:56;;;;;;;19.00;12.10;;;;;;;4.71;68.30;96327.38;5050464;28;20190;-45
2023/12/18 05:12:23;;;;;;;16.70;10.87;;;;;;;4.68;68.30;96323.22;5049557;28;20195;-46
2023/12/18 05:14:51;;;;;;;16.37;11.17;;;;;;;4.69;68.25;96332.47;5032469;28;20200;-46
2023/12/18 05:17:18;;;;;;;17.47;10.77;;;;;;;4.68;68.22;96330.03;5029845;28;20192;-46
2023/12/18 05:19:45;;;;;;;15.90;11.27;;;;;;;4.70;68.27;96335.84;5029876;28;20578;-45
2023/12/18 05:22:11;;;;;;;15.93;11.23;;;;;;;4.68;68.41;96328.31;5029545;28;20195;-45
2023/12/18 05:24:38;;;;;;;17.23;11.40;;;;;;;4.69;68.29;96327.41;5029583;28;20231;-45
2023/12/18 05:27:05;;;;;;;16.20;11.47;;;;;;;4.69;68.37;96319.00;5043361;28;20190;-45
2023/12/18 05:29:32;;;;;;;17.60;12.13;;;;;;;4.69;68.64;96319.00;5047872;28;20209;-48
2023/12/18 05:32:00;;;;;;;18.10;11.60;;;;;;;4.62;68.22;96309.97;5029771;28;20196;-45
2023/12/18 05:34:26;;;;;;;18.23;12.33;;;;;;;4.69;68.38;96319.81;5030026;28;20183;-45
2023/12/18 05:36:54;;;;;;;19.20;12.03;;;;;;;4.70;68.29;96318.09;5029353;28;20198;-46
2023/12/18 05:39:21;;;;;;;18.27;12.37;;;;;;;4.66;68.27;96316.56;5030507;28;20207;-44
2023/12/18 05:41:47;;;;;;;20.63;13.43;;;;;;;4.63;68.45;96314.19;5030149;28;20211;-46
2023/12/18 05:44:14;;;;;;;19.20;13.47;;;;;;;4.69;68.42;96321.53;5029629;28;20195;-43
2023/12/18 05:46:41;;;;;;;18.30;12.33;;;;;;;4.67;68.44;96326.66;5046509;28;20190;-45
2023/12/18 05:49:09;;;;;;;18.43;12.83;;;;;;;4.64;68.30;96326.78;5049994;28;20268;-45
2023/12/18 05:51:36;;;;;;;13.67;9.17;;;;;;;5.22;100.00;96333.69;5049089;28;20210;-45
2023/12/18 05:54:02;;;;;;;15.07;10.87;;;;;;;6.46;100.00;96325.66;5049175;28;20588;-45
2023/12/18 05:56:29;;;;;;;15.47;10.73;;;;;;;7.62;100.00;96327.53;5049654;28;20721;-45
2023/12/18 05:58:57;;;;;;;13.70;9.63;;;;;;;8.66;100.00;96319.41;5049268;28;20256;-45
2023/12/18 06:01:24;;;;;;;13.17;8.97;;;;;;;9.62;100.00;96317.28;5049726;28;20199;-45
2023/12/18 06:03:51;;;;;;;13.60;10.20;;;;;;;10.44;96.38;96331.88;5034863;28;20257;-49
2023/12/18 06:06:19;;;;;;;19.40;12.33;;;;;;;10.79;93.47;96327.06;5031466;28;20237;-45
2023/12/18 06:08:46;;;;;;;19.07;12.40;;;;;;;10.77;90.47;96327.19;5044431;28;20194;-49
2023/12/18 06:11:15;;;;;;;15.27;11.30;;;;;;;10.50;84.66;96311.84;5042197;28;20195;-46
2023/12/18 06:13:42;;;;;;;20.40;13.90;;;;;;;10.38;81.05;96334.81;5049505;28;20195;-45
2023/12/18 06:16:09;;;;;;;19.30;14.07;;;;;;;10.11;78.15;96334.78;5031215;28;20236;-47
2023/12/18 06:18:36;;;;;;;25.53;14.20;;;;;;;9.85;76.38;96333.81;5029883;28;20191;-45
2023/12/18 06:21:04;;;;;;;21.07;14.13;;;;;;;9.57;75.27;96338.00;5029202;28;20227;-46
2023/12/18 06:23:32;;;;;;;20.67;14.17;;;;;;;9.39;74.51;96341.63;5029402;28;20312;-47
2023/12/18 06:25:59;;;;;;;32.77;16.53;;;;;;;9.33;74.41;96342.81;5029060;28;20195;-46
2023/12/18 06:28:25;;;;;;;21.17;15.37;;;;;;;9.35;73.98;96342.72;5029762;28;20302;-46
2023/12/18 06:30:52;;;;;;;20.93;15.37;;;;;;;9.40;73.07;96343.28;5029737;28;20184;-45
2023/12/18 06:33:19;;;;;;;21.33;15.87;;;;;;;9.51;72.65;96339.19;5029850;28;20195;-46
2023/12/18 06:35:46;;;;;;;22.60;16.00;;;;;;;9.66;72.18;96331.50;5029120;28;20199;-47
2023/12/18 06:38:12;;;;;;;19.73;15.30;;;;;;;9.80;71.70;96324.69;5018489;28;20688;-47
2023/12/18 06:40:41;;;;;;;23.27;16.63;;;;;;;10.04;71.52;96326.66;5037760;28;20226;-45
2023/12/18 06:43:07;;;;;;;25.23;16.43;;;;;;;10.25;71.14;96321.97;5048572;28;20191;-46
2023/12/18 06:45:34;;;;;;;24.53;15.60;;;;;;;10.49;71.05;96325.56;5048965;28;20314;-48
2023/12/18 06:48:02;;;;;;;35.53;21.23;;;;;;;10.75;70.76;96318.78;5048738;28;20190;-47
2023/12/18 06:50:29;;;;;;;26.67;17.63;;;;;;;11.04;70.40;96322.00;5052383;28;20249;-47
2023/12/18 06:52:56;;;;;;;27.20;16.97;;;;;;;11.30;70.05;96319.47;5052754;28;20253;-48
2023/12/18 06:55:23;;;;;;;30.93;19.23;;;;;;;11.60;69.67;96318.34;5052175;28;20197;-46
2023/12/18 06:57:54;;;;;;;27.43;17.60;;;;;;;11.85;69.16;96302.97;5052244;28;20285;-45
2023/12/18 07:00:21;;;;;;;28.93;17.43;;;;;;;12.21;68.59;96314.16;5052976;28;20592;-45
2023/12/18 07:02:47;;;;;;;22.30;16.60;;;;;;;12.53;67.88;96328.09;5052451;28;20214;-47
2023/12/18 07:05:16;;;;;;;27.13;18.47;;;;;;;12.84;67.29;96327.63;5052287;28;20206;-47
2023/12/18 07:07:44;;;;;;;24.40;17.83;;;;;;;13.15;66.55;96344.19;5052004;28;20195;-45
2023/12/18 07:10:11;;;;;;;28.90;18.43;;;;;;;13.41;65.70;96339.72;5052224;28;20286;-47
2023/12/18 07:12:38;;;;;;;26.50;18.73;;;;;;;13.69;64.89;96348.78;5052387;28;20198;-47
2023/12/18 07:15:09;;;;;;;32.03;19.90;;;;;;;13.97;64.21;96350.03;5050789;28;20195;-45
2023/12/18 07:17:36;;;;;;;25.63;18.93;;;;;;;14.21;63.40;96342.19;5034494;28;20697;-46
2023/12/18 07:20:03;;;;;;;26.10;18.13;;;;;;;14.44;62.53;96335.25;5052164;28;20222;-45
2023/12/18 07:22:30;;;;;;;28.67;20.43;;;;;;;14.68;62.16;96353.09;5051536;28;20194;-46
2023/12/18 07:24:57;;;;;;;32.33;19.97;;;;;;;14.92;61.16;96346.00;5052476;28;20199;-46
2023/12/18 07:27:24;;;;;;;30.60;20.30;;;;;;;15.17;60.35;96346.59;5052594;28;20599;-46
2023/12/18 07:29:51;;;;;;;27.10;19.03;;;;;;;15.41;59.74;96346.31;5052088;28;20620;-49
2023/12/18 07:32:19;;;;;;;28.17;21.27;;;;;;;15.62;58.93;96341.97;5052061;28;20188;-46
2023/12/18 07:34:46;;;;;;;29.27;21.23;;;;;;;15.82;58.63;96335.19;5051940;28;20239;-44
2023/12/18 07:37:14;;;;;;;25.40;19.90;;;;;;;16.01;58.08;96337.81;5051846;28;20226;-46
2023/12/18 07:39:40;;;;;;;28.53;21.43;;;;;;;16.11;57.38;96332.72;5051246;28;20191;-46
2023/12/18 07:42:08;;;;;;;27.37;20.53;;;;;;;16.09;56.79;96333.78;5051734;28;20206;-44
2023/12/18 07:44:34;;;;;;;27.53;20.50;;;;;;;15.98;56.79;96338.09;5051307;28;20199;-46
2023/12/18 07:47:01;;;;;;;29.30;21.23;;;;;;;15.75;56.74;96324.56;5051864;28;20194;-46
2023/12/18 07:49:29;;;;;;;30.77;21.30;;;;;;;15.22;56.74;96262.78;5051358;28;20194;-46
2023/12/18 07:51:56;;;;;;;33.43;22.17;;;;;;;15.41;56.50;96330.84;5051481;28;20203;-45
2023/12/18 07:54:23;;;;;;;31.23;21.40;;;;;;;15.18;56.39;96333.56;5040793;28;20206;-45
2023/12/18 07:56:49;;;;;;;27.70;21.47;;;;;;;14.95;56.18;96326.91;5039175;28;20225;-46
2023/12/18 07:59:17;;;;;;;29.90;21.40;;;;;;;14.73;56.04;96331.22;5050942;28;20240;-45
2023/12/18 08:01:44;;;;;;;28.80;21.33;;;;;;;14.58;55.80;96332.41;5050629;28;20726;-44
2023/12/18 08:04:11;;;;;;;32.13;21.80;;;;;;;14.49;55.39;96300.50;5029867;28;20196;-46
2023/12/18 08:06:40;;;;;;;30.37;22.03;;;;;;;14.62;54.88;96325.28;5030239;28;20249;-45
2023/12/18 08:09:07;;;;;;;28.17;21.40;;;;;;;14.39;54.97;96316.78;5029651;28;20303;-48
2023/12/18 08:11:38;;;;;;;30.87;20.97;;;;;;;14.13;54.94;96314.50;5030405;28;20219;-47
2023/12/18 08:14:12;;;;;;;32.87;21.53;;;;;;;13.93;55.03;96310.88;5027401;28;20218;-45
2023/12/18 08:16:39;;;;;;;30.93;22.10;;;;;;;13.86;54.71;96322.59;5029201;28;20843;-46
2023/12/18 08:19:06;;;;;;;29.10;22.10;;;;;;;13.71;54.73;96311.72;5029864;28;20199;-47
2023/12/18 08:21:34;;;;;;;33.20;21.77;;;;;;;13.59;54.80;96330.63;5030286;28;20211;-45
2023/12/18 08:24:02;;;;;;;29.93;21.50;;;;;;;13.45;54.83;96329.09;5029905;28;20723;-47
2023/12/18 08:26:29;;;;;;;33.77;23.27;;;;;;;13.28;54.76;96316.69;5029801;28;20192;-46
2023/12/18 08:28:57;;;;;;;35.00;24.67;;;;;;;13.35;54.54;96337.63;5030944;28;20633;-44
2023/12/18 08:31:24;;;;;;;34.07;24.33;;;;;;;13.44;54.19;96334.38;5033415;28;20192;-44
2023/12/18 08:33:51;;;;;;;36.00;24.90;;;;;;;13.67;53.66;96330.88;5031627;28;20188;-46
2023/12/18 08:36:18;;;;;;;36.53;26.03;;;;;;;13.93;53.04;96328.88;5031023;28;20612;-44
2023/12/18 08:38:45;;;;;;;38.87;26.20;;;;;;;14.04;52.54;96325.50;5030760;28;20189;-46
2023/12/18 08:41:13;;;;;;;36.07;25.63;;;;;;;13.86;52.61;96320.03;5029372;28;20592;-45
2023/12/18 08:43:42;;;;;;;35.60;25.73;;;;;;;13.59;53.11;96319.53;5029702;28;20199;-47
2023/12/18 08:46:08;;;;;;;35.73;27.13;;;;;;;13.34;53.57;96323.94;5029695;28;20192;-46
2023/12/18 08:48:35;;;;;;;36.03;25.70;;;;;;;13.11;53.54;96330.75;5031014;28;20187;-46
2023/12/18 08:51:02;;;;;;;33.37;25.87;;;;;;;12.93;53.95;96321.84;5029903;28;20203;-46
2023/12/18 08:53:29;;;;;;;36.53;26.23;;;;;;;12.76;54.00;96323.88;5030836;28;20196;-45
2023/12/18 08:55:55;;;;;;;37.30;26.27;;;;;;;12.62;54.31;96321.47;5041521;28;20192;-45
2023/12/18 08:58:25;;;;;;;32.03;24.03;;;;;;;12.44;54.42;96307.41;5044449;28;20183;-46
2023/12/18 09:00:52;;;;;;;35.53;25.27;;;;;;;12.35;54.53;96315.72;5030300;28;20215;-45
2023/12/18 09:03:20;;;;;;;34.00;23.83;;;;;;;12.22;54.84;96321.75;5030099;28;20180;-45
2023/12/18 09:05:48;;;;;;;31.17;24.07;;;;;;;11.97;55.00;96291.84;5029011;28;20203;-45
2023/12/18 09:08:17;;;;;;;30.73;23.07;;;;;;;12.00;55.11;96306.19;5026884;28;20643;-46
2023/12/18 09:10:45;;;;;;;31.83;22.70;;;;;;;11.93;55.19;96303.25;5029720;28;20301;-46
2023/12/18 09:13:11;;;;;;;32.77;22.60;;;;;;;11.87;55.17;96302.84;5028797;28;20214;-46
2023/12/18 09:15:43;;;;;;;31.80;23.03;;;;;;;11.29;55.27;96215.38;5030461;28;20214;-47
2023/12/18 09:18:10;;;;;;;31.33;22.47;;;;;;;11.77;55.51;96300.06;5030333;28;20286;-45
2023/12/18 09:20:37;;;;;;;31.27;22.63;;;;;;;11.71;55.32;96288.50;5029669;28;20231;-45
2023/12/18 09:23:08;;;;;;;29.97;22.73;;;;;;;11.67;55.67;96283.69;5028891;28;20227;-47
2023/12/18 09:25:38;;;;;;;30.17;21.07;;;;;;;11.62;55.65;96285.75;5029209;28;20199;-45
2023/12/18 09:28:06;;;;;;;32.10;21.50;;;;;;;11.56;55.66;96277.53;5029007;28;20199;-45
2023/12/18 09:30:33;;;;;;;32.10;21.53;;;;;;;11.49;55.80;96271.22;5028889;28;20203;-46
2023/12/18 09:33:04;;;;;;;30.50;21.73;;;;;;;11.49;55.84;96273.78;5030869;28;20199;-45
2023/12/18 09:35:31;;;;;;;29.60;22.07;;;;;;;11.45;55.96;96274.91;5028471;28;20203;-46
2023/12/18 09:37:58;;;;;;;28.27;20.87;;;;;;;11.43;55.98;96268.22;5028982;28;20187;-45
2023/12/18 09:40:25;;;;;;;33.10;20.87;;;;;;;11.36;55.92;96257.59;5028990;28;20232;-46
2023/12/18 09:42:53;;;;;;;32.43;21.90;;;;;;;11.39;56.08;96264.25;5028226;28;20404;-46
2023/12/18 09:45:23;;;;;;;35.83;22.87;;;;;;;11.37;56.04;96263.53;5027485;28;20565;-47
2023/12/18 09:47:50;;;;;;;32.33;21.97;;;;;;;11.36;56.11;96252.47;5028781;28;20335;-45
2023/12/18 09:50:19;;;;;;;34.10;20.43;;;;;;;11.34;56.19;96249.19;5031437;28;20187;-45
2023/12/18 09:52:53;;;;;;;31.83;20.87;;;;;;;11.33;56.31;96239.88;5028288;28;20184;-44
2023/12/18 09:55:21;;;;;;;31.63;20.70;;;;;;;11.32;56.31;96242.53;5029202;28;20201;-46
2023/12/18 09:57:50;;;;;;;31.30;20.83;;;;;;;11.30;56.47;96246.00;5028387;28;20199;-44
2023/12/18 10:00:19;;;;;;;30.43;21.80;;;;;;;11.31;56.13;96239.13;5028346;28;20290;-44
2023/12/18 10:02:47;;;;;;;31.50;21.73;;;;;;;11.31;56.34;96234.00;5026107;28;20237;-44
2023/12/18 10:05:15;;;;;;;34.07;23.30;;;;;;;11.32;56.33;96232.31;5028384;28;20195;-45
2023/12/18 10:07:43;;;;;;;31.13;23.17;;;;;;;11.33;56.17;96234.75;5029560;28;20221;-44
2023/12/18 10:10:10;;;;;;;35.93;24.13;;;;;;;11.25;56.22;96214.78;5028240;28;20204;-46
2023/12/18 10:12:38;;;;;;;31.17;21.87;;;;;;;11.36;56.42;96223.50;5025885;28;20595;-44
2023/12/18 10:15:07;;;;;;;32.03;23.47;;;;;;;11.38;56.36;96227.56;5029045;28;20274;-46
2023/12/18 10:17:34;;;;;;;34.07;22.90;;;;;;;11.41;56.34;96221.44;5028237;28;20300;-46
2023/12/18 10:20:03;;;;;;;32.17;22.47;;;;;;;11.43;56.19;96215.25;5027923;28;20664;-47
2023/12/18 10:22:30;;;;;;;31.77;21.17;;;;;;;11.42;56.30;96205.94;5028110;28;20593;-47
2023/12/18 10:24:59;;;;;;;29.77;21.13;;;;;;;11.46;56.22;96211.69;5030855;28;20202;-44
2023/12/18 10:27:26;;;;;;;30.47;20.60;;;;;;;11.49;56.39;96211.47;5033317;28;20222;-46
2023/12/18 10:29:54;;;;;;;32.63;21.43;;;;;;;10.50;56.38;96056.06;5031805;28;20249;-45
2023/12/18 10:32:23;;;;;;;29.77;19.43;;;;;;;11.56;56.13;96210.09;5032111;28;20188;-47
2023/12/18 10:34:50;;;;;;;22.87;17.63;;;;;;;11.60;56.23;96210.72;5031546;28;20274;-47
2023/12/18 10:37:20;;;;;;;27.47;17.50;;;;;;;11.61;56.04;96204.66;5032491;28;20202;-46
2023/12/18 10:39:51;;;;;;;25.10;17.43;;;;;;;11.51;56.13;96184.81;5031646;28;20188;-47
2023/12/18 10:42:27;;;;;;;25.63;17.63;;;;;;;11.69;56.07;96199.81;5032950;28;20258;-46
2023/12/18 10:44:55;;;;;;;23.13;16.03;;;;;;;11.60;56.09;96174.84;5031628;28;20203;-46
2023/12/18 10:47:22;;;;;;;20.87;15.03;;;;;;;11.76;56.09;96188.22;5029454;28;20200;-46
2023/12/18 10:49:52;;;;;;;22.70;16.33;;;;;;;11.77;56.13;96169.34;5031708;28;20199;-46
2023/12/18 10:52:21;;;;;;;22.13;15.23;;;;;;;11.84;55.97;96168.03;5031495;28;20245;-46
2023/12/18 10:54:49;;;;;;;20.73;15.03;;;;;;;11.88;56.04;96160.94;5031141;28;20668;-47
2023/12/18 10:57:18;;;;;;;20.97;15.30;;;;;;;11.94;56.12;96151.06;5031569;28;20192;-46
2023/12/18 10:59:49;;;;;;;20.13;13.73;;;;;;;12.03;55.89;96135.00;5031358;28;20659;-45
2023/12/18 11:02:17;;;;;;;19.97;14.00;;;;;;;12.04;55.88;96128.94;5031568;28;20303;-43
2023/12/18 11:04:45;;;;;;;17.50;13.83;;;;;;;12.24;55.87;96150.59;5031267;28;20653;-46
2023/12/18 11:07:13;;;;;;;17.63;11.93;;;;;;;12.29;56.03;96140.81;5030189;28;20208;-45
2023/12/18 11:09:40;;;;;;;20.43;14.13;;;;;;;12.33;56.04;96138.03;5031748;28;20187;-46
2023/12/18 11:12:10;;;;;;;17.10;12.50;;;;;;;12.36;55.98;96130.09;5031592;28;20196;-46
2023/12/18 11:14:55;;;;;;;16.87;12.23;;;;;;;12.38;55.96;96130.78;5029676;28;20195;-45
2023/12/18 11:17:40;;;;;;;17.30;11.47;;;;;;;12.37;56.18;96119.72;5030127;28;20644;-45
2023/12/18 11:20:17;;;;;;;17.13;10.73;;;;;;;12.43;55.95;96118.44;5030813;28;20199;-46
2023/12/18 11:22:46;;;;;;;15.20;11.70;;;;;;;12.44;55.90;96117.53;5030859;28;20246;-48